Time;durP1;ratioP1;P1;durP2;ratioP2;P2;SDS_P1;SDS_P2;PMS_P1;PMS_P2;Temp;Humidity;BMP_temperature;BMP_pressure;BME280_temperature;BME280_humidity;BME280_pressure;Samples;Min_cycle;Max_cycle;Signal;HPM_P1;HPM_P2
2023/10/16 00:01:57;;;;;;;14.50;8.63;;;;;;;17.44;64.94;96370.28;5066890;28;20230;-72
2023/10/16 00:04:25;;;;;;;16.13;9.03;;;;;;;17.63;64.45;96374.84;5052625;28;20678;-74
2023/10/16 00:07:00;;;;;;;12.37;8.77;;;;;;;17.67;64.30;96374.47;5046236;28;20555;-71
2023/10/16 00:09:28;;;;;;;17.27;9.03;;;;;;;17.61;64.78;96380.22;5046133;28;20202;-72
2023/10/16 00:11:58;;;;;;;13.87;8.20;;;;;;;17.70;64.00;96368.97;5045650;28;20809;-72
2023/10/16 00:14:27;;;;;;;14.87;8.93;;;;;;;17.85;63.64;96391.25;5064631;28;20275;-72
2023/10/16 00:16:56;;;;;;;21.57;9.07;;;;;;;17.76;63.92;96394.63;5059800;28;20193;-72
2023/10/16 00:19:26;;;;;;;13.63;9.77;;;;;;;17.65;64.04;96396.50;5058323;28;20255;-72
2023/10/16 00:21:57;;;;;;;13.70;9.37;;;;;;;17.29;64.37;96402.16;5057684;28;20690;-73
2023/10/16 00:24:24;;;;;;;17.37;9.13;;;;;;;17.13;64.25;96405.19;5051343;28;20276;-71
2023/10/16 00:26:53;;;;;;;11.80;8.53;;;;;;;17.29;63.08;96395.13;5055389;28;20289;-75
2023/10/16 00:29:23;;;;;;;12.90;9.23;;;;;;;17.33;62.95;96393.09;5056739;28;20278;-71
2023/10/16 00:31:51;;;;;;;14.13;9.00;;;;;;;17.46;62.90;96401.56;5041246;28;20202;-71
2023/10/16 00:34:20;;;;;;;11.03;8.77;;;;;;;17.62;62.71;96404.63;5065230;28;20187;-72
2023/10/16 00:36:54;;;;;;;18.70;8.17;;;;;;;17.71;62.24;96398.59;5064906;28;20640;-71
2023/10/16 00:39:25;;;;;;;14.87;7.73;;;;;;;17.73;62.01;96415.00;5048421;28;20195;-72
2023/10/16 00:41:54;;;;;;;13.23;8.63;;;;;;;17.90;61.49;96417.06;5044850;28;20268;-74
2023/10/16 00:44:22;;;;;;;15.30;7.77;;;;;;;17.86;61.11;96426.97;5059392;28;20682;-75
2023/10/16 00:46:52;;;;;;;13.47;6.63;;;;;;;18.00;60.45;96438.06;5065865;28;20201;-72
2023/10/16 00:49:23;;;;;;;8.97;6.57;;;;;;;17.98;60.16;96429.50;5047991;28;20198;-78
2023/10/16 00:51:51;;;;;;;12.13;6.07;;;;;;;17.87;60.14;96433.00;5065462;28;21068;-72
2023/10/16 00:54:27;;;;;;;12.20;6.57;;;;;;;17.90;59.92;96427.53;5050782;28;20622;-76
2023/10/16 00:57:07;;;;;;;7.30;5.63;;;;;;;17.88;59.46;96419.81;5043637;28;20195;-75
2023/10/16 00:59:35;;;;;;;13.63;6.30;;;;;;;17.68;59.94;96431.09;5061954;28;20700;-75
2023/10/16 01:02:15;;;;;;;9.77;4.80;;;;;;;17.67;60.03;96442.56;5064276;28;20229;-78
2023/10/16 01:04:43;;;;;;;9.53;5.10;;;;;;;17.46;60.09;96443.47;5065889;28;20305;-74
2023/10/16 01:07:14;;;;;;;6.03;4.67;;;;;;;17.47;59.90;96445.97;5070122;28;20599;-73
2023/10/16 01:09:46;;;;;;;7.33;4.07;;;;;;;17.29;60.18;96442.22;5049081;28;20593;-77
2023/10/16 01:12:21;;;;;;;8.03;4.00;;;;;;;17.23;59.96;96455.00;5049774;28;20253;-77
2023/10/16 01:14:49;;;;;;;8.10;4.10;;;;;;;17.25;59.44;96458.34;5067785;28;20634;-73
2023/10/16 01:17:29;;;;;;;4.57;3.63;;;;;;;17.26;59.45;96473.06;5069370;28;20227;-74
2023/10/16 01:19:56;;;;;;;5.97;3.40;;;;;;;17.08;59.61;96467.53;5068838;28;20201;-72
2023/10/16 01:22:29;;;;;;;4.37;3.50;;;;;;;17.01;59.85;96484.69;5068600;28;20577;-72
2023/10/16 01:24:59;;;;;;;4.73;3.03;;;;;;;16.93;59.84;96500.16;5069178;28;20195;-73
2023/10/16 01:27:29;;;;;;;6.57;3.10;;;;;;;16.72;60.20;96480.94;5067278;28;20695;-73
2023/10/16 01:29:59;;;;;;;4.70;2.80;;;;;;;16.53;60.76;96496.38;5068650;28;20194;-73
2023/10/16 01:32:31;;;;;;;7.50;3.17;;;;;;;16.42;60.63;96478.06;5068066;28;20190;-71
2023/10/16 01:34:59;;;;;;;5.13;3.23;;;;;;;16.21;61.31;96488.41;5050094;28;20286;-72
2023/10/16 01:37:27;;;;;;;5.63;3.30;;;;;;;16.25;60.76;96482.84;5051298;28;20221;-76
2023/10/16 01:40:14;;;;;;;5.43;2.87;;;;;;;16.40;60.68;96500.88;5066367;28;20644;-75
2023/10/16 01:42:41;;;;;;;5.57;2.80;;;;;;;15.91;60.77;96422.84;5069086;28;20634;-77
2023/10/16 01:45:11;;;;;;;5.90;3.50;;;;;;;16.46;60.21;96508.25;5067765;28;20579;-74
2023/10/16 01:47:39;;;;;;;5.47;3.00;;;;;;;16.09;60.63;96495.38;5068862;28;20633;-71
2023/10/16 01:50:12;;;;;;;4.60;3.13;;;;;;;16.22;60.45;96524.84;5067021;28;20193;-72
2023/10/16 01:52:40;;;;;;;4.43;2.70;;;;;;;16.10;60.58;96520.56;5066392;28;20577;-75
2023/10/16 01:55:09;;;;;;;8.57;2.53;;;;;;;16.16;60.31;96532.31;5067198;28;20198;-71
2023/10/16 01:57:38;;;;;;;4.93;2.97;;;;;;;16.05;60.60;96530.53;5067869;28;20248;-74
2023/10/16 02:00:16;;;;;;;11.30;3.00;;;;;;;15.95;60.69;96533.97;5066942;28;20181;-72
2023/10/16 02:02:45;;;;;;;10.67;3.27;;;;;;;15.71;60.97;96512.28;5066963;28;20225;-75
2023/10/16 02:05:15;;;;;;;4.80;2.57;;;;;;;15.94;60.43;96533.13;5067529;28;20193;-71
2023/10/16 02:07:45;;;;;;;6.17;2.63;;;;;;;15.72;60.86;96521.78;5068970;28;20703;-73
2023/10/16 02:10:12;;;;;;;6.30;3.00;;;;;;;15.67;61.14;96535.19;5067637;28;20193;-75
2023/10/16 02:12:39;;;;;;;8.57;3.20;;;;;;;15.64;60.66;96535.38;5068562;28;20181;-74
2023/10/16 02:15:08;;;;;;;10.47;3.17;;;;;;;15.62;60.75;96552.94;5065856;28;20268;-72
2023/10/16 02:17:37;;;;;;;9.63;2.77;;;;;;;15.33;61.22;96534.16;5067313;28;20197;-71
2023/10/16 02:20:11;;;;;;;6.77;2.20;;;;;;;15.38;61.35;96542.50;5067925;28;20197;-72
2023/10/16 02:22:40;;;;;;;5.57;2.27;;;;;;;15.22;61.79;96543.72;5051451;28;20217;-73
2023/10/16 02:25:17;;;;;;;6.27;2.87;;;;;;;15.06;62.04;96540.56;5068740;28;20603;-75
2023/10/16 02:27:45;;;;;;;8.97;2.77;;;;;;;14.99;61.59;96537.53;5067282;28;20185;-72
2023/10/16 02:30:28;;;;;;;13.67;5.57;;;;;;;14.88;62.07;96565.31;5055437;28;20594;-76
2023/10/16 02:33:10;;;;;;;8.50;2.37;;;;;;;14.80;61.59;96551.97;5047187;28;20181;-73
2023/10/16 02:35:37;;;;;;;21.30;4.00;;;;;;;14.81;61.81;96553.66;5063437;28;20196;-71
2023/10/16 02:38:06;;;;;;;41.27;4.80;;;;;;;14.73;61.45;96575.03;5069028;28;20221;-77
2023/10/16 02:40:35;;;;;;;7.97;2.47;;;;;;;14.71;61.65;96582.13;5066632;28;20263;-72
2023/10/16 02:43:04;;;;;;;2.17;1.53;;;;;;;14.62;62.10;96596.63;5050222;28;20224;-72
2023/10/16 02:45:33;;;;;;;6.10;2.17;;;;;;;14.53;61.57;96591.19;5052757;28;20282;-77
2023/10/16 02:48:01;;;;;;;14.10;3.10;;;;;;;14.43;61.16;96592.78;5047945;28;20218;-75
2023/10/16 02:50:29;;;;;;;8.13;2.33;;;;;;;14.29;61.59;96605.91;5065550;28;20610;-72
2023/10/16 02:52:56;;;;;;;16.33;1.80;;;;;;;14.10;61.36;96574.16;5065944;28;20186;-75
2023/10/16 02:55:23;;;;;;;15.67;3.67;;;;;;;14.09;62.21;96602.00;5066362;28;20196;-71
2023/10/16 02:57:51;;;;;;;6.77;1.90;;;;;;;13.93;62.26;96566.69;5068128;28;20190;-74
2023/10/16 03:00:34;;;;;;;5.37;1.90;;;;;;;14.09;61.72;96603.78;5063281;28;20213;-73
2023/10/16 03:03:05;;;;;;;2.30;1.80;;;;;;;14.12;61.24;96613.97;5068548;28;20231;-77
2023/10/16 03:05:32;;;;;;;8.07;2.00;;;;;;;14.20;61.19;96635.16;5068504;28;20205;-75
2023/10/16 03:08:00;;;;;;;11.23;1.90;;;;;;;13.97;60.67;96628.00;5066791;28;20197;-77
2023/10/16 03:10:30;;;;;;;5.17;1.97;;;;;;;13.89;60.79;96618.94;5064782;28;20196;-72
2023/10/16 03:13:00;;;;;;;3.77;1.90;;;;;;;13.92;61.26;96610.09;5065979;28;20207;-76
2023/10/16 03:15:29;;;;;;;3.13;1.67;;;;;;;13.83;61.02;96616.72;5063998;28;20239;-75
2023/10/16 03:17:56;;;;;;;6.23;1.77;;;;;;;13.57;61.13;96582.94;5067369;28;20206;-72
2023/10/16 03:20:28;;;;;;;5.30;2.00;;;;;;;13.43;60.61;96565.63;5046978;28;20188;-75
2023/10/16 03:22:55;;;;;;;2.80;2.10;;;;;;;13.62;61.64;96640.72;5066722;28;20222;-72
2023/10/16 03:28:28;;;;;;;4.63;1.93;;;;;;;13.58;61.20;96686.06;5003252;28;20219;-76
2023/10/16 03:30:58;;;;;;;3.13;2.10;;;;;;;13.61;60.38;96672.84;5020255;28;20690;-75
2023/10/16 03:33:27;;;;;;;2.17;1.60;;;;;;;13.67;60.40;96682.88;5054598;28;20671;-79
2023/10/16 03:35:54;;;;;;;2.07;1.53;;;;;;;13.70;59.97;96680.91;5057383;28;20216;-72
2023/10/16 03:38:26;;;;;;;1.73;1.63;;;;;;;13.69;59.84;96683.63;5062017;28;20228;-76
2023/10/16 03:40:56;;;;;;;2.10;1.60;;;;;;;13.63;59.53;96676.19;5056079;28;20205;-76
2023/10/16 03:43:23;;;;;;;3.80;1.70;;;;;;;13.84;58.62;96657.47;5057428;28;20746;-74
2023/10/16 03:45:53;;;;;;;5.40;3.10;;;;;;;13.75;58.86;96636.38;5058499;28;20191;-70
2023/10/16 03:48:21;;;;;;;3.00;1.73;;;;;;;13.89;58.87;96629.34;5056550;28;20197;-71
2023/10/16 03:50:53;;;;;;;2.03;1.50;;;;;;;13.88;58.94;96613.81;5054209;28;20191;-78
2023/10/16 03:53:20;;;;;;;6.23;2.00;;;;;;;14.01;58.66;96621.66;5049322;28;20210;-73
2023/10/16 03:55:48;;;;;;;1.73;1.60;;;;;;;14.09;58.17;96624.59;5054680;28;20194;-70
2023/10/16 03:58:19;;;;;;;3.20;1.50;;;;;;;14.08;57.39;96638.53;5054770;28;20192;-76
2023/10/16 04:00:52;;;;;;;3.93;1.70;;;;;;;14.05;57.56;96644.81;5056594;28;20260;-78
2023/10/16 04:03:26;;;;;;;6.07;1.80;;;;;;;13.92;56.79;96663.91;5054511;28;20213;-72
2023/10/16 04:05:54;;;;;;;3.50;1.67;;;;;;;13.84;56.54;96659.22;5039518;28;20183;-76
2023/10/16 04:08:25;;;;;;;3.20;1.43;;;;;;;13.90;55.83;96679.63;5065732;28;20580;-72
2023/10/16 04:10:56;;;;;;;3.03;1.40;;;;;;;13.79;55.45;96656.06;5065516;28;20193;-71
2023/10/16 04:13:26;;;;;;;2.80;1.43;;;;;;;13.81;54.73;96669.81;5064545;28;20278;-71
2023/10/16 04:18:30;;;;;;;2.53;1.40;;;;;;;13.83;53.28;96693.97;5054322;28;20219;-72
2023/10/16 04:26:30;;;;;;;1.60;1.40;;;;;;;13.67;52.23;96662.91;5054549;28;21022;-74
2023/10/16 04:32:07;;;;;;;2.47;1.40;;;;;;;13.68;51.60;96674.16;5056308;28;20681;-71
2023/10/16 04:34:39;;;;;;;5.13;1.23;;;;;;;13.65;51.19;96671.72;5053458;28;20189;-73
2023/10/16 04:50:29;;;;;;;3.57;1.70;;;;;;;13.29;49.88;96752.06;5068108;28;20193;-72
2023/10/16 04:53:21;;;;;;;3.37;1.40;;;;;;;13.40;49.47;96726.22;5068522;28;20246;-72
2023/10/16 05:19:17;;;;;;;5.37;1.30;;;;;;;12.90;48.62;96748.31;5069126;28;20193;-69
2023/10/16 06:14:09;;;;;;;5.83;1.83;;;;;;;13.14;47.66;96760.78;5052870;28;20203;-75
2023/10/16 06:14:47;;;;;;;;;;;;;;;12.97;44.79;96894.34;5048509;28;20481;-70
2023/10/16 06:17:15;;;;;;;;;;;;;;;12.90;44.53;96929.41;5062507;28;19973;-71
2023/10/16 06:19:43;;;;;;;;;;;;;;;13.01;44.55;96922.66;5068487;28;19931;-71
2023/10/16 06:22:11;;;;;;;;;;;;;;;12.95;44.51;96907.44;5067468;28;20029;-72
2023/10/16 06:24:44;;;;;;;;;;;;;;;12.82;44.72;96945.44;5066653;28;20399;-74
2023/10/16 06:27:24;;;;;;;;;;;;;;;12.91;44.17;96916.31;5059477;28;20351;-74
2023/10/16 06:29:51;;;;;;;;;;;;;;;12.87;44.37;96943.41;5048792;28;19968;-75
2023/10/16 06:32:26;;;;;;;;;;;;;;;12.84;44.96;96930.59;5060255;28;19981;-77
2023/10/16 06:34:57;;;;;;;;;;;;;;;12.74;44.73;96932.03;5066265;28;19931;-73
2023/10/16 06:37:38;;;;;;;;;;;;;;;12.79;44.70;96937.81;5067321;28;19956;-73
2023/10/16 06:40:15;;;;;;;;;;;;;;;12.86;43.64;96949.53;5049134;28;20429;-75
2023/10/16 06:42:46;;;;;;;;;;;;;;;12.97;44.10;96974.91;5065123;28;19973;-72
2023/10/16 06:45:19;;;;;;;;;;;;;;;13.08;43.66;96973.41;5066431;28;19954;-73
2023/10/16 06:47:49;;;;;;;;;;;;;;;12.80;43.79;96960.25;5064935;28;20339;-72
2023/10/16 06:52:52;;;;;;;;;;;;;;;12.96;43.91;96966.28;5065626;28;19932;-75
2023/10/16 06:55:21;;;;;;;;;;;;;;;12.92;43.68;96982.16;5066690;28;19930;-74
2023/10/16 06:57:48;;;;;;;;;;;;;;;12.91;43.62;96990.84;5066283;28;19924;-75
2023/10/16 07:00:25;;;;;;;;;;;;;;;12.95;43.61;96995.81;5048225;28;19930;-74
2023/10/16 07:02:56;;;;;;;;;;;;;;;12.94;42.95;97020.09;5052235;28;19960;-76
2023/10/16 07:05:25;;;;;;;;;;;;;;;12.97;43.26;97016.50;5051314;28;19925;-73
2023/10/16 07:07:56;;;;;;;;;;;;;;;12.92;43.40;97018.53;5067399;28;19924;-72
2023/10/16 07:10:26;;;;;;;;;;;;;;;13.08;42.24;97024.59;5066495;28;19963;-75
2023/10/16 07:13:02;;;;;;;;;;;;;;;13.03;41.96;97009.22;5066455;28;19974;-71
2023/10/16 07:15:30;;;;;;;;;;;;;;;12.97;42.03;97035.56;5066589;28;19924;-76
2023/10/16 07:18:06;;;;;;;;;;;;;;;12.84;41.89;97044.94;5066103;28;19940;-74
2023/10/16 07:20:44;;;;;;;;;;;;;;;12.73;43.06;97036.06;5041597;28;20328;-75
2023/10/16 07:23:20;;;;;;;;;;;;;;;12.77;42.54;97028.00;5043884;28;19929;-74
2023/10/16 07:25:56;;;;;;;;;;;;;;;12.65;42.45;97039.03;5056290;28;20052;-74
2023/10/16 07:28:26;;;;;;;;;;;;;;;12.76;42.73;97047.13;5065450;28;19924;-71
2023/10/16 07:30:56;;;;;;;;;;;;;;;12.73;42.93;97057.69;5064306;28;20025;-73
2023/10/16 07:33:24;;;;;;;;;;;;;;;12.85;42.26;97062.22;5065328;28;19924;-75
2023/10/16 07:35:52;;;;;;;;;;;;;;;12.83;42.38;97076.22;5065212;28;19924;-74
2023/10/16 07:38:20;;;;;;;;;;;;;;;12.90;42.56;97070.59;5058609;28;19991;-71
2023/10/16 07:41:11;;;;;;;;;;;;;;;13.08;42.17;97084.38;5049137;28;19946;-78
2023/10/16 07:43:39;;;;;;;;;;;;;;;13.39;41.94;97078.31;5041696;28;19925;-71
2023/10/16 07:48:53;;;;;;;;;;;;;;;13.39;41.90;97093.94;5063753;28;20415;-78
2023/10/16 07:51:20;;;;;;;;;;;;;;;13.41;41.99;97120.69;5066207;28;19931;-74
2023/10/16 07:53:51;;;;;;;;;;;;;;;13.64;42.00;97096.84;5066318;28;19924;-72
2023/10/16 07:59:07;;;;;;;;;;;;;;;13.77;42.34;97095.19;5046202;28;19933;-71
2023/10/16 08:01:57;;;;;;;;;;;;;;;13.70;43.13;97089.50;5050344;28;19924;-69
2023/10/16 08:04:38;;;;;;;;;;;;;;;13.80;42.33;97095.03;5065612;28;19925;-74
2023/10/16 08:07:16;;;;;;;;;;;;;;;13.86;42.63;97094.66;5064454;28;19999;-73
2023/10/16 08:12:18;;;;;;;;;;;;;;;13.72;42.38;97071.19;5048240;28;19975;-72
2023/10/16 08:14:54;;;;;;;;;;;;;;;13.86;42.43;97112.88;5045564;28;19924;-78
2023/10/16 08:17:24;;;;;;;;;;;;;;;13.69;42.05;97098.25;5065019;28;20007;-71
2023/10/16 08:19:51;;;;;;;;;;;;;;;13.71;41.29;97117.19;5065824;28;19924;-72
2023/10/16 08:22:22;;;;;;;;;;;;;;;13.56;41.81;97099.84;5065469;28;19924;-68
2023/10/16 08:25:00;;;;;;;;;;;;;;;13.65;40.99;97101.94;5065835;28;19937;-70
2023/10/16 08:30:25;;;;;;;;;;;;;;;13.91;41.23;97103.03;5064873;28;19924;-74
2023/10/16 08:33:06;;;;;;;;;;;;;;;13.82;41.56;97103.59;5065110;28;19986;-72
2023/10/16 08:35:41;;;;;;;;;;;;;;;13.93;41.08;97098.56;5065642;28;20307;-76
2023/10/16 08:38:20;;;;;;;;;;;;;;;13.87;41.21;97110.19;5064571;28;19963;-70
2023/10/16 08:40:57;;;;;;;;;;;;;;;13.70;41.71;97109.50;5063409;28;19963;-75
2023/10/16 08:43:52;;;;;;;;;;;;;;;13.80;41.44;97115.84;5065815;28;19928;-75
2023/10/16 08:46:34;;;;;;;;;;;;;;;13.97;41.17;97117.47;5065268;28;20372;-72
2023/10/16 08:49:02;;;;;;;;;;;;;;;14.10;41.26;97131.44;5065323;28;19924;-73
2023/10/16 08:51:30;;;;;;;;;;;;;;;14.09;40.58;97115.00;5065879;28;20339;-75
2023/10/16 08:54:02;;;;;;;;;;;;;;;14.07;40.52;97113.41;5065213;28;19924;-75
2023/10/16 08:56:29;;;;;;;;;;;;;;;14.18;40.63;97131.88;5065970;28;20307;-73
2023/10/16 08:58:57;;;;;;;;;;;;;;;14.48;40.05;97133.53;5065544;28;19925;-74
2023/10/16 09:01:27;;;;;;;;;;;;;;;14.56;39.62;97126.09;5066885;28;20376;-75
2023/10/16 09:04:15;;;;;;;;;;;;;;;14.69;38.92;97129.59;5067552;28;19955;-74
2023/10/16 09:06:46;;;;;;;;;;;;;;;14.90;38.80;97126.66;5064633;28;19924;-75
2023/10/16 09:09:16;;;;;;;;;;;;;;;14.79;38.40;97124.69;5067250;28;19963;-77
2023/10/16 09:11:43;;;;;;;;;;;;;;;14.86;38.03;97130.38;5064394;28;20391;-75
2023/10/16 09:14:17;;;;;;;;;;;;;;;14.96;37.23;97101.00;5066423;28;19924;-73
2023/10/16 09:16:51;;;;;;;;;;;;;;;14.95;36.97;97140.22;5064467;28;19925;-72
2023/10/16 09:19:19;;;;;;;;;;;;;;;14.85;36.26;97149.53;5064626;28;19971;-74
2023/10/16 09:21:52;;;;;;;;;;;;;;;14.64;36.62;97141.25;5065398;28;19931;-69
2023/10/16 09:24:20;;;;;;;;;;;;;;;14.88;36.68;97138.94;5064916;28;19971;-73
2023/10/16 09:26:54;;;;;;;;;;;;;;;14.99;36.17;97162.56;5067745;28;19998;-70
2023/10/16 09:29:25;;;;;;;;;;;;;;;14.98;36.37;97160.91;5067496;28;20456;-77
2023/10/16 09:31:53;;;;;;;;;;;;;;;14.85;36.30;97167.78;5065938;28;19936;-77
2023/10/16 09:34:25;;;;;;;;;;;;;;;14.90;36.16;97168.38;5068798;28;19924;-77
2023/10/16 09:39:46;;;;;;;;;;;;;;;15.06;35.46;97172.56;5077467;28;19928;-76
2023/10/16 09:42:14;;;;;;;;;;;;;;;15.41;35.33;97158.13;5075770;28;19925;-73
2023/10/16 09:44:44;;;;;;;;;;;;;;;15.55;35.44;97148.63;5074950;28;19962;-74
2023/10/16 09:47:26;;;;;;;;;;;;;;;15.26;35.61;97140.00;5080235;28;19950;-75
2023/10/16 09:49:55;;;;;;;;;;;;;;;15.26;36.10;97158.25;5069383;28;20324;-76
2023/10/16 09:52:22;;;;;;;;;;;;;;;15.27;36.09;97162.56;5068147;28;20380;-75
2023/10/16 09:54:54;;;;;;;;;;;;;;;15.27;36.32;97131.25;5067775;28;20715;-77
2023/10/16 09:57:27;;;;;;;;;;;;;;;15.48;35.93;97158.63;5068683;28;20014;-77
2023/10/16 09:59:54;;;;;;;;;;;;;;;15.12;35.84;97166.97;5066880;28;19924;-75
2023/10/16 10:02:25;;;;;;;;;;;;;;;15.05;36.08;97141.31;5067687;28;20370;-75
2023/10/16 10:04:59;;;;;;;;;;;;;;;14.62;36.41;97107.47;5066798;28;20399;-71
2023/10/16 10:07:38;;;;;;;;;;;;;;;15.05;36.18;97164.81;5067433;28;19982;-78
2023/10/16 10:12:57;;;;;;;;;;;;;;;15.06;36.42;97185.59;5066338;28;19935;-76
2023/10/16 10:15:35;;;;;;;;;;;;;;;15.01;36.22;97187.63;5067729;28;19936;-75
2023/10/16 10:20:58;;;;;;;;;;;;;;;14.97;36.78;97182.69;5067190;28;19931;-74
2023/10/16 10:23:27;;;;;;;;;;;;;;;15.05;36.88;97185.66;5066339;28;19930;-75
2023/10/16 10:25:54;;;;;;;;;;;;;;;15.11;36.32;97174.84;5067523;28;19931;-76
2023/10/16 10:28:28;;;;;;;;;;;;;;;14.99;36.45;97186.91;5049334;28;20564;-71
2023/10/16 10:31:02;;;;;;;;;;;;;;;15.16;36.25;97191.09;5059388;28;19932;-77
2023/10/16 10:33:37;;;;;;;;;;;;;;;15.13;36.71;97186.03;5047828;28;20015;-75
2023/10/16 10:36:39;;;;;;;;;;;;;;;15.39;36.51;97187.91;5046586;28;19931;-74
2023/10/16 10:42:03;;;;;;;;;;;;;;;15.48;35.94;97186.50;5045978;28;19968;-70
2023/10/16 10:44:37;;;;;;;;;;;;;;;15.55;36.37;97178.19;5047313;28;19967;-70
2023/10/16 10:47:24;;;;;;;;;;;;;;;15.67;36.33;97189.63;5064294;28;19968;-70
2023/10/16 10:49:51;;;;;;;;;;;;;;;15.78;35.66;97190.63;5045548;28;19999;-75
2023/10/16 10:52:22;;;;;;;;;;;;;;;15.44;35.76;97211.94;5063337;28;19963;-74
2023/10/16 10:55:14;;;;;;;;;;;;;;;15.29;35.75;97202.44;5065394;28;20068;-75
2023/10/16 10:57:47;;;;;;;;;;;;;;;15.28;35.68;97185.09;5064431;28;20312;-74
2023/10/16 11:05:31;;;;;;;;;;;;;;;15.79;35.52;97196.66;5066300;28;20015;-75
2023/10/16 11:08:17;;;;;;;;;;;;;;;15.80;35.18;97190.53;5066535;28;20405;-75
2023/10/16 11:10:46;;;;;;;;;;;;;;;15.95;34.67;97172.06;5067443;28;19925;-75
2023/10/16 11:13:14;;;;;;;;;;;;;;;15.88;34.88;97198.69;5058570;28;19925;-72
2023/10/16 11:15:54;;;;;;;;;;;;;;;15.89;35.13;97203.81;5047097;28;19931;-73
2023/10/16 11:18:26;;;;;;;;;;;;;;;15.71;35.80;97184.09;5056514;28;20003;-79
2023/10/16 11:21:13;;;;;;;;;;;;;;;15.73;35.10;97191.84;5065146;28;19928;-79
2023/10/16 11:23:46;;;;;;;;;;;;;;;15.79;34.95;97189.69;5057764;28;19924;-76
2023/10/16 11:26:16;;;;;;;;;;;;;;;15.93;35.23;97205.28;5066777;28;20019;-71
2023/10/16 11:28:48;;;;;;;;;;;;;;;15.74;34.26;97183.94;5055774;28;19925;-76
2023/10/16 11:31:18;;;;;;;;;;;;;;;15.85;33.86;97188.44;5046406;28;19932;-77
2023/10/16 11:34:03;;;;;;;;;;;;;;;15.48;34.30;97192.56;5057040;28;19924;-77
2023/10/16 11:36:31;;;;;;;;;;;;;;;15.59;34.30;97208.38;5066116;28;19924;-74
2023/10/16 11:39:10;;;;;;;;;;;;;;;15.38;35.13;97197.50;5051969;28;19932;-77
2023/10/16 11:41:37;;;;;;;;;;;;;;;15.40;34.57;97187.78;5046609;28;20481;-75
2023/10/16 11:44:13;;;;;;;;;;;;;;;15.42;34.56;97185.94;5059047;28;19944;-78
2023/10/16 11:46:44;;;;;;;;;;;;;;;15.76;34.46;97186.44;5066189;28;20035;-75
2023/10/16 11:51:48;;;;;;;;;;;;;;;15.93;33.59;97178.38;5064170;28;19924;-75
2023/10/16 11:54:20;;;;;;;;;;;;;;;15.85;33.77;97194.50;5054360;28;20031;-72
2023/10/16 11:56:55;;;;;;;;;;;;;;;16.03;33.93;97182.06;5066228;28;20026;-68
2023/10/16 11:59:26;;;;;;;;;;;;;;;16.24;33.53;97193.69;5050951;28;19932;-70
2023/10/16 12:01:53;;;;;;;;;;;;;;;16.10;32.19;97191.16;5046742;28;20015;-68
2023/10/16 12:04:30;;;;;;;;;;;;;;;15.81;31.10;97211.31;5059934;28;19924;-78
2023/10/16 12:06:58;;;;;;;;;;;;;;;15.63;32.35;97211.63;5065337;28;20371;-71
2023/10/16 12:09:27;;;;;;;;;;;;;;;15.68;33.10;97194.78;5065778;28;19932;-69
2023/10/16 12:11:55;;;;;;;;;;;;;;;15.75;32.66;97219.53;5064967;28;19929;-70
2023/10/16 12:14:23;;;;;;;;;;;;;;;15.50;32.44;97222.00;5066071;28;19986;-72
2023/10/16 12:17:12;;;;;;;;;;;;;;;15.47;33.57;97222.22;5064592;28;19924;-67
2023/10/16 12:19:52;;;;;;;;;;;;;;;15.82;33.49;97228.66;5066104;28;19943;-70
2023/10/16 12:22:23;;;;;;;;;;;;;;;15.90;33.16;97218.56;5066410;28;19924;-72
2023/10/16 12:24:50;;;;;;;;;;;;;;;15.93;33.10;97243.66;5065192;28;19931;-69
2023/10/16 12:27:17;;;;;;;;;;;;;;;15.63;33.77;97225.53;5065728;28;19931;-70
2023/10/16 12:29:44;;;;;;;;;;;;;;;15.71;33.59;97219.81;5065910;28;19924;-68
2023/10/16 12:32:12;;;;;;;;;;;;;;;15.99;33.27;97215.34;5066098;28;20318;-77
2023/10/16 12:34:40;;;;;;;;;;;;;;;16.17;32.46;97214.19;5065828;28;19932;-78
2023/10/16 12:37:08;;;;;;;;;;;;;;;15.80;32.33;97187.91;5064432;28;19974;-71
2023/10/16 12:39:45;;;;;;;;;;;;;;;15.97;32.93;97226.84;5065519;28;19924;-69
2023/10/16 12:42:13;;;;;;;;;;;;;;;16.07;33.01;97239.19;5065853;28;19935;-69
2023/10/16 12:44:40;;;;;;;;;;;;;;;16.01;32.75;97221.31;5047980;28;19925;-74
2023/10/16 12:47:08;;;;;;;;;;;;;;;16.13;32.81;97241.44;5065156;28;20381;-70
2023/10/16 12:49:35;;;;;;;;;;;;;;;15.70;33.29;97232.06;5065948;28;20261;-69
2023/10/16 12:52:03;;;;;;;;;;;;;;;15.75;33.47;97235.19;5065180;28;19924;-72
2023/10/16 12:54:30;;;;;;;;;;;;;;;15.70;33.75;97233.81;5066059;28;19924;-75
2023/10/16 12:57:02;;;;;;;;;;;;;;;15.58;34.29;97250.25;5065082;28;20302;-69
2023/10/16 12:59:30;;;;;;;;;;;;;;;15.80;34.40;97222.72;5066229;28;19925;-68
2023/10/16 13:01:59;;;;;;;;;;;;;;;15.87;34.24;97234.41;5067257;28;19928;-74
2023/10/16 13:04:28;;;;;;;;;;;;;;;15.92;34.37;97226.31;5069860;28;19932;-71
2023/10/16 13:06:56;;;;;;;;;;;;;;;15.92;34.46;97234.97;5069217;28;19925;-75
2023/10/16 13:09:23;;;;;;;;;;;;;;;15.77;34.57;97220.28;5068675;28;20403;-79
2023/10/16 13:11:50;;;;;;;;;;;;;;;15.80;34.00;97235.75;5069822;28;19963;-75
2023/10/16 13:14:17;;;;;;;;;;;;;;;15.80;34.25;97229.69;5068399;28;19924;-73
2023/10/16 13:16:53;;;;;;;;;;;;;;;16.06;34.04;97231.47;5068138;28;19928;-75
2023/10/16 13:19:20;;;;;;;;;;;;;;;15.94;32.91;97240.94;5068629;28;19924;-69
2023/10/16 13:21:51;;;;;;;;;;;;;;;15.88;32.93;97235.25;5069128;28;19925;-71
2023/10/16 13:24:23;;;;;;;;;;;;;;;15.78;32.70;97250.69;5069134;28;19998;-72
2023/10/16 13:26:52;;;;;;;;;;;;;;;15.78;32.81;97248.09;5068681;28;19971;-68
2023/10/16 13:29:21;;;;;;;;;;;;;;;15.84;32.67;97242.47;5063964;28;19932;-68
2023/10/16 13:31:48;;;;;;;;;;;;;;;15.81;32.46;97244.41;5054213;28;20347;-74
2023/10/16 13:34:17;;;;;;;;;;;;;;;15.82;33.09;97246.94;5058805;28;19967;-71
2023/10/16 13:37:01;;;;;;;;;;;;;;;15.73;33.30;97268.41;5058930;28;20400;-75
2023/10/16 13:39:31;;;;;;;;;;;;;;;15.87;32.75;97247.47;5056543;28;19929;-76
2023/10/16 13:42:00;;;;;;;;;;;;;;;16.02;32.04;97230.84;5065294;28;19925;-68
2023/10/16 13:44:51;;;;;;;;;;;;;;;15.95;32.41;97257.47;5048360;28;19925;-72
2023/10/16 13:47:18;;;;;;;;;;;;;;;15.91;32.66;97250.75;5060219;28;19936;-71
2023/10/16 13:49:46;;;;;;;;;;;;;;;15.77;32.93;97249.00;5046958;28;19931;-77
2023/10/16 13:52:14;;;;;;;;;;;;;;;15.76;32.41;97249.09;5048629;28;19935;-73
2023/10/16 13:54:41;;;;;;;;;;;;;;;15.76;32.75;97264.78;5048674;28;20054;-68
2023/10/16 13:57:09;;;;;;;;;;;;;;;15.64;33.26;97261.13;5048037;28;19960;-69
2023/10/16 13:59:37;;;;;;;;;;;;;;;15.55;33.11;97256.50;5048511;28;19924;-72
2023/10/16 14:02:05;;;;;;;;;;;;;;;15.51;32.70;97257.63;5047694;28;20404;-72
2023/10/16 14:04:35;;;;;;;;;;;;;;;15.67;32.59;97260.97;5048256;28;20039;-73
2023/10/16 14:07:08;;;;;;;;;;;;;;;15.63;32.16;97254.25;5048817;28;19925;-74
2023/10/16 14:09:38;;;;;;;;;;;;;;;15.62;31.30;97252.56;5067528;28;20343;-69
2023/10/16 14:12:05;;;;;;;;;;;;;;;15.68;31.32;97262.66;5068437;28;19931;-79
2023/10/16 14:14:33;;;;;;;;;;;;;;;15.69;31.12;97279.97;5067727;28;20545;-69
2023/10/16 14:17:16;;;;;;;;;;;;;;;15.61;30.97;97261.34;5068565;28;19925;-73
2023/10/16 14:19:47;;;;;;;;;;;;;;;15.48;31.33;97265.63;5067538;28;20367;-76
2023/10/16 14:22:15;;;;;;;;;;;;;;;15.40;31.59;97260.88;5065488;28;19926;-73
2023/10/16 14:24:43;;;;;;;;;;;;;;;15.33;31.86;97272.59;5067616;28;19998;-77
2023/10/16 14:27:18;;;;;;;;;;;;;;;15.34;32.42;97257.78;5067554;28;19928;-70
2023/10/16 14:29:48;;;;;;;;;;;;;;;15.33;32.46;97272.59;5066332;28;20075;-76
2023/10/16 14:32:16;;;;;;;;;;;;;;;15.35;32.04;97265.50;5064040;28;20405;-70
2023/10/16 14:34:43;;;;;;;;;;;;;;;15.42;32.08;97276.41;5055879;28;20008;-73
2023/10/16 14:37:09;;;;;;;;;;;;;;;15.54;32.56;97267.88;5063032;28;19928;-72
2023/10/16 14:39:36;;;;;;;;;;;;;;;15.58;32.28;97276.38;5045216;28;19925;-72
2023/10/16 14:42:05;;;;;;;;;;;;;;;15.39;32.15;97284.47;5055220;28;20000;-74
2023/10/16 14:44:33;;;;;;;;;;;;;;;15.38;31.99;97282.75;5047280;28;20360;-69
2023/10/16 14:47:06;;;;;;;;;;;;;;;15.17;32.60;97278.84;5048014;28;19932;-79
2023/10/16 14:49:36;;;;;;;;;;;;;;;15.21;32.82;97280.31;5046840;28;19925;-72
2023/10/16 14:52:03;;;;;;;;;;;;;;;15.14;32.87;97294.69;5046777;28;20465;-70
2023/10/16 14:54:31;;;;;;;;;;;;;;;15.19;33.04;97279.56;5045277;28;19928;-73